createdAt,value
2022-07-26T00:01:19.079Z,15.83
2022-07-26T00:03:45.778Z,15.84
2022-07-26T00:06:12.122Z,15.85
2022-07-26T00:08:38.586Z,15.88
2022-07-26T00:11:07.186Z,15.95
2022-07-26T00:13:34.459Z,16.01
2022-07-26T00:16:01.067Z,16.07
2022-07-26T00:18:27.452Z,16.13
2022-07-26T00:20:53.804Z,16.17
2022-07-26T00:23:21.930Z,16.19
2022-07-26T00:25:48.280Z,16.17
2022-07-26T00:28:14.577Z,16.15
2022-07-26T00:30:40.967Z,16.14
2022-07-26T00:33:07.413Z,16.10
2022-07-26T00:35:34.841Z,16.05
2022-07-26T00:38:01.135Z,16.01
2022-07-26T00:40:27.526Z,15.99
2022-07-26T00:42:53.876Z,15.96
2022-07-26T00:45:20.263Z,15.92
2022-07-26T00:47:46.580Z,15.90
2022-07-26T00:50:14.593Z,15.85
2022-07-26T00:52:45.065Z,15.83
2022-07-26T00:55:11.441Z,15.80
2022-07-26T00:57:38.264Z,15.78
2022-07-26T01:00:06.751Z,15.78
2022-07-26T01:02:33.142Z,15.75
2022-07-26T01:04:59.530Z,15.74
2022-07-26T01:07:25.843Z,15.72
2022-07-26T01:09:52.243Z,15.73
2022-07-26T01:12:18.593Z,15.74
2022-07-26T01:14:45.290Z,15.74
2022-07-26T01:17:12.466Z,15.71
2022-07-26T01:19:38.800Z,15.69
2022-07-26T01:22:05.389Z,15.65
2022-07-26T01:24:31.833Z,15.62
2022-07-26T01:26:58.363Z,15.60
2022-07-26T01:29:34.587Z,15.56
2022-07-26T01:32:04.003Z,15.54
2022-07-26T01:34:30.647Z,15.52
2022-07-26T01:36:57.305Z,15.50
2022-07-26T01:39:23.644Z,15.49
2022-07-26T01:41:49.943Z,15.44
2022-07-26T01:44:16.272Z,15.43
2022-07-26T01:46:42.701Z,15.43
2022-07-26T01:49:09.350Z,15.42
2022-07-26T01:51:35.950Z,15.41
2022-07-26T01:54:02.676Z,15.42
2022-07-26T01:56:29.052Z,15.41
2022-07-26T01:58:55.518Z,15.39
2022-07-26T02:01:39.073Z,15.40
2022-07-26T02:04:06.852Z,15.44
2022-07-26T02:06:33.334Z,15.52
2022-07-26T02:09:00.722Z,15.59
2022-07-26T02:11:28.175Z,15.64
2022-07-26T02:13:54.506Z,15.69
2022-07-26T02:16:20.858Z,15.72
2022-07-26T02:18:47.239Z,15.77
2022-07-26T02:21:13.572Z,15.77
2022-07-26T02:23:41.804Z,15.78
2022-07-26T02:26:08.464Z,15.76
2022-07-26T02:28:34.789Z,15.76
2022-07-26T02:31:01.247Z,15.74
2022-07-26T02:33:27.597Z,15.72
2022-07-26T02:35:53.941Z,15.71
2022-07-26T02:38:20.276Z,15.74
2022-07-26T02:40:46.675Z,15.75
2022-07-26T02:43:12.990Z,15.77
2022-07-26T02:45:39.355Z,15.77
2022-07-26T02:48:05.840Z,15.79
2022-07-26T02:50:32.254Z,15.76
2022-07-26T02:52:58.840Z,15.71
2022-07-26T02:55:25.675Z,15.65
2022-07-26T02:57:52.147Z,15.63
2022-07-26T03:00:20.061Z,15.61
2022-07-26T03:02:46.543Z,15.63
2022-07-26T03:05:12.918Z,15.64
2022-07-26T03:07:39.385Z,15.63
2022-07-26T03:10:05.943Z,15.63
2022-07-26T03:12:32.261Z,15.61
2022-07-26T03:14:58.652Z,15.63
2022-07-26T03:17:24.990Z,15.68
2022-07-26T03:19:51.347Z,15.72
2022-07-26T03:22:17.806Z,15.77
2022-07-26T03:24:44.127Z,15.81
2022-07-26T03:27:10.587Z,15.84
2022-07-26T03:29:37.567Z,15.90
2022-07-26T03:32:04.134Z,15.90
2022-07-26T03:34:30.432Z,15.92
2022-07-26T03:36:56.930Z,15.94
2022-07-26T03:39:23.331Z,15.91
2022-07-26T03:41:49.707Z,15.88
2022-07-26T03:44:16.054Z,15.87
2022-07-26T03:46:42.396Z,15.87
2022-07-26T03:49:10.972Z,15.89
2022-07-26T03:51:40.953Z,15.90
2022-07-26T03:54:07.528Z,15.87
2022-07-26T03:56:34.160Z,15.87
2022-07-26T03:59:08.769Z,15.84
2022-07-26T04:01:35.778Z,15.87
2022-07-26T04:04:02.319Z,15.86
2022-07-26T04:06:28.737Z,15.87
2022-07-26T04:08:55.165Z,15.87
2022-07-26T04:11:21.572Z,15.85
2022-07-26T04:13:53.255Z,15.83
2022-07-26T04:16:19.576Z,15.84
2022-07-26T04:18:46.073Z,15.91
2022-07-26T04:21:12.438Z,15.98
2022-07-26T04:23:38.770Z,16.06
2022-07-26T04:26:05.165Z,16.13
2022-07-26T04:28:31.879Z,16.21
2022-07-26T04:30:59.003Z,16.29
2022-07-26T04:33:25.668Z,16.33
2022-07-26T04:35:52.632Z,16.33
2022-07-26T04:38:19.080Z,16.32
2022-07-26T04:40:45.800Z,16.31
2022-07-26T04:43:15.612Z,16.36
2022-07-26T04:45:42.794Z,16.44
2022-07-26T04:48:09.124Z,16.57
2022-07-26T04:50:35.498Z,16.70
2022-07-26T04:53:02.917Z,16.80
2022-07-26T04:55:29.606Z,16.89
2022-07-26T04:57:55.922Z,16.98
2022-07-26T05:00:24.768Z,17.04
2022-07-26T05:02:53.462Z,17.09
2022-07-26T05:05:20.604Z,17.08
2022-07-26T05:07:48.792Z,17.10
2022-07-26T05:10:15.774Z,17.11
2022-07-26T05:12:42.092Z,17.09
2022-07-26T05:15:13.617Z,17.12
2022-07-26T05:17:41.131Z,17.08
2022-07-26T05:20:08.071Z,17.12
2022-07-26T05:22:37.206Z,17.11
2022-07-26T05:25:04.316Z,17.10
2022-07-26T05:27:30.803Z,17.16
2022-07-26T05:29:58.220Z,17.18
2022-07-26T05:32:24.561Z,17.16
2022-07-26T05:34:51.011Z,17.09
2022-07-26T05:37:17.367Z,17.07
2022-07-26T05:39:43.747Z,17.02
2022-07-26T05:42:10.318Z,16.98
2022-07-26T05:44:36.638Z,16.91
2022-07-26T05:47:09.134Z,16.89
2022-07-26T05:49:40.245Z,16.88
2022-07-26T05:52:06.923Z,16.91
2022-07-26T05:54:33.242Z,16.91
2022-07-26T05:56:59.564Z,16.85
2022-07-26T05:59:25.908Z,16.82
2022-07-26T06:01:56.370Z,16.80
2022-07-26T06:04:23.793Z,16.71
2022-07-26T06:06:52.935Z,16.69
2022-07-26T06:09:19.504Z,16.68
2022-07-26T06:11:46.351Z,16.64
2022-07-26T06:14:12.976Z,16.61
2022-07-26T06:16:39.616Z,16.58
2022-07-26T06:19:05.949Z,16.66
2022-07-26T06:21:32.282Z,16.79
2022-07-26T06:23:58.598Z,16.93
2022-07-26T06:26:24.960Z,17.04
2022-07-26T06:28:51.557Z,17.05
2022-07-26T06:31:18.565Z,17.11
2022-07-26T06:33:45.117Z,17.09
2022-07-26T06:36:11.583Z,17.07
2022-07-26T06:38:37.885Z,17.05
2022-07-26T06:41:04.227Z,17.19
2022-07-26T06:43:30.559Z,17.23
2022-07-26T06:45:57.024Z,17.32
2022-07-26T06:48:23.416Z,17.43
2022-07-26T06:50:49.807Z,17.48
2022-07-26T06:53:16.141Z,17.46
2022-07-26T06:55:42.657Z,17.36
2022-07-26T06:58:09.094Z,17.39
2022-07-26T07:00:35.427Z,17.36
2022-07-26T07:03:01.736Z,17.37
2022-07-26T07:05:31.040Z,17.39
2022-07-26T07:07:57.708Z,17.31
2022-07-26T07:10:24.730Z,17.30
2022-07-26T07:12:51.226Z,17.16
2022-07-26T07:15:17.679Z,17.12
2022-07-26T07:17:43.996Z,17.21
2022-07-26T07:20:10.684Z,17.34
2022-07-26T07:22:36.983Z,17.36
2022-07-26T07:25:03.506Z,17.32
2022-07-26T07:27:32.641Z,17.30
2022-07-26T07:29:59.940Z,17.21
2022-07-26T07:32:26.422Z,17.05
2022-07-26T07:34:54.898Z,16.66
2022-07-26T07:37:21.385Z,16.28
2022-07-26T07:39:50.174Z,16.08
2022-07-26T07:42:17.288Z,16.01
2022-07-26T07:44:43.682Z,15.92
2022-07-26T07:47:10.152Z,16.04
2022-07-26T07:49:36.592Z,16.28
2022-07-26T07:52:03.296Z,16.66
2022-07-26T07:54:30.083Z,16.73
2022-07-26T07:56:56.465Z,16.97
2022-07-26T07:59:23.546Z,17.10
2022-07-26T08:01:50.125Z,17.19
2022-07-26T08:04:16.619Z,17.55
2022-07-26T08:06:43.124Z,18.06
2022-07-26T08:09:16.815Z,18.18
2022-07-26T08:11:43.137Z,18.03
2022-07-26T08:14:09.475Z,17.74
2022-07-26T08:16:35.981Z,17.44
2022-07-26T08:19:02.388Z,17.11
2022-07-26T08:21:29.350Z,16.91
2022-07-26T08:23:56.366Z,16.82
2022-07-26T08:26:22.739Z,16.87
2022-07-26T08:28:58.381Z,17.10
2022-07-26T08:31:26.581Z,17.31
2022-07-26T08:33:52.927Z,17.49
2022-07-26T08:36:19.255Z,17.64
2022-07-26T08:38:47.450Z,17.76
2022-07-26T08:41:14.489Z,17.89
2022-07-26T08:43:52.385Z,18.18
2022-07-26T08:46:25.989Z,18.62
2022-07-26T08:48:53.390Z,18.95
2022-07-26T08:51:20.223Z,19.24
2022-07-26T08:53:47.419Z,19.51
2022-07-26T08:56:13.934Z,19.69
2022-07-26T08:58:40.796Z,19.40
2022-07-26T09:01:08.711Z,19.31
2022-07-26T09:03:37.931Z,18.90
2022-07-26T09:06:11.612Z,18.86
2022-07-26T09:08:38.009Z,18.80
2022-07-26T09:11:24.290Z,18.63
2022-07-26T09:13:55.084Z,18.49
2022-07-26T09:16:21.863Z,18.79
2022-07-26T09:18:48.411Z,18.91
2022-07-26T09:21:34.129Z,18.98
2022-07-26T09:24:00.667Z,19.15
2022-07-26T09:26:27.109Z,19.11
2022-07-26T09:29:05.965Z,19.33
2022-07-26T09:31:32.950Z,19.85
2022-07-26T09:34:00.106Z,20.04
2022-07-26T09:36:27.746Z,20.19
2022-07-26T09:39:01.499Z,20.32
2022-07-26T09:41:30.572Z,20.49
2022-07-26T09:44:01.301Z,20.68
2022-07-26T09:46:28.576Z,20.63
2022-07-26T09:49:12.320Z,20.65
2022-07-26T09:51:40.611Z,20.25
2022-07-26T09:54:08.061Z,20.28
2022-07-26T09:56:42.261Z,20.31
2022-07-26T09:59:09.142Z,20.20
2022-07-26T10:01:35.715Z,20.25
2022-07-26T10:04:02.099Z,20.35
2022-07-26T10:06:30.509Z,20.33
2022-07-26T10:08:57.250Z,20.28
2022-07-26T10:11:25.644Z,20.31
2022-07-26T10:13:51.964Z,20.28
2022-07-26T10:16:36.290Z,20.16
2022-07-26T10:19:04.925Z,20.38
2022-07-26T10:21:31.469Z,20.48
2022-07-26T10:23:58.948Z,20.72
2022-07-26T10:26:31.437Z,21.25
2022-07-26T10:29:19.108Z,21.25
2022-07-26T10:31:46.807Z,20.96
2022-07-26T10:34:31.855Z,20.72
2022-07-26T10:37:02.027Z,20.32
2022-07-26T10:39:28.349Z,20.18
2022-07-26T10:41:58.734Z,20.68
2022-07-26T10:44:29.764Z,21.13
2022-07-26T10:47:04.318Z,21.71
2022-07-26T10:49:38.639Z,21.51
2022-07-26T10:52:04.935Z,20.81
2022-07-26T10:54:31.368Z,20.70
2022-07-26T10:56:58.061Z,20.48
2022-07-26T10:59:54.720Z,20.64
2022-07-26T11:02:20.732Z,21.84
2022-07-26T11:04:47.541Z,23.20
2022-07-26T11:07:13.912Z,24.45
2022-07-26T11:09:40.255Z,25.24
2022-07-26T11:12:19.556Z,24.84
2022-07-26T11:14:48.390Z,23.36
2022-07-26T11:17:24.314Z,23.34
2022-07-26T11:19:50.790Z,23.99
2022-07-26T11:22:17.194Z,23.58
2022-07-26T11:24:44.155Z,22.80
2022-07-26T11:27:10.521Z,23.41
2022-07-26T11:29:39.218Z,24.43
2022-07-26T11:32:17.422Z,25.25
2022-07-26T11:34:45.366Z,25.40
2022-07-26T11:37:11.804Z,25.04
2022-07-26T11:39:38.145Z,25.36
2022-07-26T11:42:06.056Z,25.94
2022-07-26T11:44:32.752Z,26.11
2022-07-26T11:47:00.007Z,25.84
2022-07-26T11:50:01.006Z,25.51
2022-07-26T11:52:14.868Z,24.19
2022-07-26T11:54:47.120Z,24.53
2022-07-26T11:57:13.730Z,24.91
2022-07-26T11:59:40.122Z,25.74
2022-07-26T12:02:08.668Z,25.22
2022-07-26T12:04:38.423Z,24.51
2022-07-26T12:07:10.253Z,23.87
2022-07-26T12:09:37.895Z,23.01
2022-07-26T12:12:05.673Z,22.65
2022-07-26T12:14:33.379Z,23.82
2022-07-26T12:17:10.107Z,24.69
2022-07-26T12:19:36.943Z,24.30
2022-07-26T12:22:13.880Z,24.68
2022-07-26T12:24:52.375Z,25.35
2022-07-26T12:27:25.929Z,26.20
2022-07-26T12:30:15.610Z,26.76
2022-07-26T12:32:43.483Z,26.94
2022-07-26T12:35:11.073Z,27.02
2022-07-26T12:37:47.946Z,26.76
2022-07-26T12:40:16.150Z,26.76
2022-07-26T12:42:44.069Z,26.94
2022-07-26T12:45:12.115Z,26.17
2022-07-26T12:47:40.060Z,25.31
2022-07-26T12:50:06.729Z,24.45
2022-07-26T12:52:33.859Z,24.11
2022-07-26T12:55:00.611Z,24.81
2022-07-26T12:57:27.363Z,25.66
2022-07-26T12:59:54.311Z,25.20
2022-07-26T13:02:21.032Z,25.47
2022-07-26T13:04:47.907Z,25.54
2022-07-26T13:07:15.694Z,26.29
2022-07-26T13:09:42.546Z,26.88
2022-07-26T13:12:09.726Z,25.64
2022-07-26T13:14:36.479Z,26.08
2022-07-26T13:17:03.530Z,26.29
2022-07-26T13:19:30.078Z,26.60
2022-07-26T13:21:57.420Z,27.08
2022-07-26T13:24:24.939Z,26.96
2022-07-26T13:26:51.546Z,26.76
2022-07-26T13:29:18.435Z,27.06
2022-07-26T13:31:44.898Z,27.89
2022-07-26T13:34:11.675Z,27.76
2022-07-26T13:36:38.722Z,27.26
2022-07-26T13:39:05.406Z,26.03
2022-07-26T13:41:31.939Z,24.87
2022-07-26T13:44:02.201Z,24.52
2022-07-26T13:46:33.496Z,23.94
2022-07-26T13:49:01.732Z,23.42
2022-07-26T13:51:56.268Z,22.91
2022-07-26T13:54:23.833Z,23.41
2022-07-26T13:56:50.258Z,24.39
2022-07-26T13:59:16.787Z,24.70
2022-07-26T14:01:45.143Z,25.27
2022-07-26T14:04:13.209Z,25.09
2022-07-26T14:06:40.068Z,23.86
2022-07-26T14:09:10.565Z,23.04
2022-07-26T14:11:38.053Z,23.22
2022-07-26T14:14:04.831Z,23.40
2022-07-26T14:16:31.663Z,24.31
2022-07-26T14:18:58.261Z,24.86
2022-07-26T14:21:28.227Z,24.18
2022-07-26T14:23:58.135Z,23.32
2022-07-26T14:26:25.726Z,22.80
2022-07-26T14:28:53.938Z,22.04
2022-07-26T14:31:20.384Z,21.77
2022-07-26T14:33:46.768Z,21.53
2022-07-26T14:36:13.622Z,22.25
2022-07-26T14:38:41.299Z,21.78
2022-07-26T14:41:08.072Z,21.25
2022-07-26T14:43:34.387Z,21.07
2022-07-26T14:46:00.975Z,21.00
2022-07-26T14:48:53.055Z,20.79
2022-07-26T14:51:13.751Z,21.14
2022-07-26T14:53:41.304Z,22.46
2022-07-26T14:56:07.642Z,23.73
2022-07-26T14:58:33.991Z,24.19
2022-07-26T15:01:00.450Z,24.21
2022-07-26T15:03:30.851Z,24.03
2022-07-26T15:05:57.793Z,23.51
2022-07-26T15:08:24.108Z,23.14
2022-07-26T15:10:50.516Z,23.85
2022-07-26T15:13:17.059Z,23.77
2022-07-26T15:15:43.468Z,23.64
2022-07-26T15:18:09.980Z,22.87
2022-07-26T15:20:38.644Z,22.45
2022-07-26T15:23:06.034Z,22.64
2022-07-26T15:25:35.212Z,22.79
2022-07-26T15:28:01.697Z,22.20
2022-07-26T15:30:27.996Z,21.73
2022-07-26T15:32:55.553Z,21.69
2022-07-26T15:35:21.926Z,21.86
2022-07-26T15:37:48.212Z,21.77
2022-07-26T15:40:14.817Z,21.81
2022-07-26T15:42:42.487Z,21.15
2022-07-26T15:45:11.537Z,20.86
2022-07-26T15:48:01.098Z,20.81
2022-07-26T15:50:25.991Z,20.64
2022-07-26T15:52:52.438Z,20.56
2022-07-26T15:55:19.446Z,20.52
2022-07-26T15:57:45.838Z,20.20
2022-07-26T16:00:12.694Z,20.05
2022-07-26T16:02:39.672Z,19.89
2022-07-26T16:05:06.352Z,19.69
2022-07-26T16:07:32.807Z,19.52
2022-07-26T16:09:59.114Z,19.44
2022-07-26T16:12:25.433Z,19.37
2022-07-26T16:14:51.799Z,19.28
2022-07-26T16:17:18.112Z,19.29
2022-07-26T16:19:44.407Z,19.11
2022-07-26T16:22:10.734Z,19.39
2022-07-26T16:24:37.157Z,19.79
2022-07-26T16:27:03.797Z,19.90
2022-07-26T16:29:30.154Z,19.82
2022-07-26T16:31:56.566Z,19.84
2022-07-26T16:34:22.909Z,20.05
2022-07-26T16:36:49.217Z,20.21
2022-07-26T16:39:15.814Z,19.84
2022-07-26T16:41:42.464Z,19.39
2022-07-26T16:44:08.780Z,19.31
2022-07-26T16:46:35.228Z,19.33
2022-07-26T16:49:01.733Z,19.72
2022-07-26T16:51:31.056Z,20.29
2022-07-26T16:53:57.383Z,20.45
2022-07-26T16:56:23.742Z,20.29
2022-07-26T16:58:50.117Z,19.96
2022-07-26T17:01:16.744Z,19.68
2022-07-26T17:03:43.218Z,19.30
2022-07-26T17:06:09.578Z,19.14
2022-07-26T17:08:36.029Z,18.95
2022-07-26T17:11:02.365Z,18.95
2022-07-26T17:13:28.747Z,18.68
2022-07-26T17:15:55.160Z,18.31
2022-07-26T17:18:21.867Z,18.14
2022-07-26T17:20:48.242Z,17.98
2022-07-26T17:23:14.582Z,18.11
2022-07-26T17:25:40.941Z,17.99
2022-07-26T17:28:07.265Z,17.98
2022-07-26T17:30:33.659Z,17.85
2022-07-26T17:32:59.984Z,17.67
2022-07-26T17:35:26.364Z,17.50
2022-07-26T17:37:55.523Z,17.40
2022-07-26T17:40:23.102Z,17.35
2022-07-26T17:42:52.394Z,17.37
2022-07-26T17:45:18.708Z,17.43
2022-07-26T17:47:45.063Z,17.43
2022-07-26T17:50:36.666Z,17.40
2022-07-26T17:52:58.270Z,17.33
2022-07-26T17:55:24.621Z,17.18
2022-07-26T17:57:51.399Z,17.09
2022-07-26T18:00:19.413Z,17.05
2022-07-26T18:02:46.002Z,16.98
2022-07-26T18:05:12.501Z,17.02
2022-07-26T18:07:39.532Z,17.06
2022-07-26T18:10:06.364Z,17.14
2022-07-26T18:12:32.829Z,17.07
2022-07-26T18:14:59.154Z,17.00
2022-07-26T18:17:25.498Z,16.79
2022-07-26T18:19:51.850Z,16.57
2022-07-26T18:22:18.233Z,16.41
2022-07-26T18:24:44.551Z,16.32
2022-07-26T18:27:10.866Z,16.21
2022-07-26T18:29:37.202Z,16.19
2022-07-26T18:32:03.591Z,16.13
2022-07-26T18:34:29.925Z,16.07
2022-07-26T18:36:56.299Z,16.02
2022-07-26T18:39:22.680Z,15.91
2022-07-26T18:41:49.068Z,15.84
2022-07-26T18:44:15.375Z,15.73
2022-07-26T18:46:41.778Z,15.62
2022-07-26T18:49:08.248Z,15.53
2022-07-26T18:51:34.765Z,15.53
2022-07-26T18:54:01.747Z,15.44
2022-07-26T18:56:28.099Z,15.37
2022-07-26T18:58:54.645Z,15.33
2022-07-26T19:01:20.982Z,15.22
2022-07-26T19:03:47.386Z,15.17
2022-07-26T19:06:13.736Z,15.14
2022-07-26T19:08:40.091Z,15.05
2022-07-26T19:11:06.429Z,15.03
2022-07-26T19:13:32.877Z,14.96
2022-07-26T19:15:59.286Z,14.87
2022-07-26T19:18:25.758Z,14.78
2022-07-26T19:20:52.072Z,14.72
2022-07-26T19:23:18.414Z,14.68
2022-07-26T19:25:44.869Z,14.61
2022-07-26T19:28:13.590Z,14.54
2022-07-26T19:30:39.916Z,14.52
2022-07-26T19:33:06.221Z,14.47
2022-07-26T19:35:32.558Z,14.43
2022-07-26T19:37:58.885Z,14.39
2022-07-26T19:40:25.215Z,14.39
2022-07-26T19:42:51.555Z,14.34
2022-07-26T19:45:18.187Z,14.29
2022-07-26T19:47:44.694Z,14.25
2022-07-26T19:50:11.849Z,14.16
2022-07-26T19:52:39.293Z,14.13
2022-07-26T19:55:05.949Z,14.07
2022-07-26T19:57:32.297Z,14.01
2022-07-26T20:00:00.397Z,13.96
2022-07-26T20:02:26.740Z,13.94
2022-07-26T20:04:54.456Z,13.90
2022-07-26T20:07:20.765Z,13.81
2022-07-26T20:09:47.612Z,13.76
2022-07-26T20:12:13.973Z,13.75
2022-07-26T20:14:40.365Z,13.75
2022-07-26T20:17:11.765Z,13.77
2022-07-26T20:19:39.667Z,13.79
2022-07-26T20:22:06.091Z,13.80
2022-07-26T20:24:32.404Z,13.74
2022-07-26T20:26:58.724Z,13.69
2022-07-26T20:29:25.081Z,13.59
2022-07-26T20:31:51.391Z,13.53
2022-07-26T20:34:17.785Z,13.46
2022-07-26T20:36:44.107Z,13.42
2022-07-26T20:39:10.842Z,13.42
2022-07-26T20:41:37.480Z,13.43
2022-07-26T20:44:05.488Z,13.44
2022-07-26T20:46:31.896Z,13.51
2022-07-26T20:48:58.484Z,13.50
2022-07-26T20:51:25.364Z,13.51
2022-07-26T20:53:51.671Z,13.56
2022-07-26T20:56:18.000Z,13.59
2022-07-26T20:58:44.332Z,13.66
2022-07-26T21:01:11.888Z,13.70
2022-07-26T21:03:39.208Z,13.70
2022-07-26T21:06:05.575Z,13.75
2022-07-26T21:08:31.894Z,13.79
2022-07-26T21:10:58.213Z,13.77
2022-07-26T21:13:24.998Z,13.78
2022-07-26T21:15:53.290Z,13.76
2022-07-26T21:18:20.109Z,13.74
2022-07-26T21:20:46.714Z,13.65
2022-07-26T21:23:17.800Z,13.60
2022-07-26T21:25:44.881Z,13.48
2022-07-26T21:28:11.209Z,13.38
2022-07-26T21:30:37.586Z,13.30
2022-07-26T21:33:03.939Z,13.21
2022-07-26T21:35:32.158Z,13.14
2022-07-26T21:37:58.456Z,13.09
2022-07-26T21:40:24.995Z,13.02
2022-07-26T21:42:51.314Z,13.05
2022-07-26T21:45:17.647Z,13.04
2022-07-26T21:47:43.986Z,13.09
2022-07-26T21:50:10.396Z,13.17
2022-07-26T21:52:36.703Z,13.23
2022-07-26T21:55:03.228Z,13.29
2022-07-26T21:57:29.560Z,13.32
2022-07-26T21:59:55.876Z,13.34
2022-07-26T22:02:22.222Z,13.32
2022-07-26T22:04:48.613Z,13.24
2022-07-26T22:07:14.935Z,13.17
2022-07-26T22:09:41.423Z,13.08
2022-07-26T22:12:07.997Z,13.04
2022-07-26T22:14:34.413Z,12.97
2022-07-26T22:17:00.882Z,12.92
2022-07-26T22:19:27.269Z,12.87
2022-07-26T22:21:53.589Z,12.85
2022-07-26T22:24:19.953Z,12.82
2022-07-26T22:26:46.374Z,12.82
2022-07-26T22:29:13.098Z,12.77
2022-07-26T22:31:39.746Z,12.76
2022-07-26T22:34:06.107Z,12.72
2022-07-26T22:36:32.428Z,12.69
2022-07-26T22:38:58.758Z,12.68
2022-07-26T22:41:25.157Z,12.65
2022-07-26T22:43:53.113Z,12.63
2022-07-26T22:46:27.578Z,12.64
2022-07-26T22:48:55.537Z,12.62
2022-07-26T22:51:21.902Z,12.63
2022-07-26T22:53:48.213Z,12.56
2022-07-26T22:56:19.572Z,12.56
2022-07-26T22:58:46.403Z,12.57
2022-07-26T23:01:12.846Z,12.58
2022-07-26T23:03:39.251Z,12.62
2022-07-26T23:06:10.383Z,12.66
2022-07-26T23:08:52.945Z,12.71
2022-07-26T23:11:19.272Z,12.72
2022-07-26T23:13:45.618Z,12.74
2022-07-26T23:16:11.954Z,12.79
2022-07-26T23:18:38.386Z,12.82
2022-07-26T23:21:04.770Z,12.82
2022-07-26T23:23:31.358Z,12.80
2022-07-26T23:25:58.462Z,12.79
2022-07-26T23:28:37.394Z,12.74
2022-07-26T23:31:05.714Z,12.67
2022-07-26T23:33:53.045Z,12.66
2022-07-26T23:36:18.388Z,12.67
2022-07-26T23:38:44.710Z,12.74
2022-07-26T23:41:11.051Z,12.78
2022-07-26T23:43:37.431Z,12.82
2022-07-26T23:46:03.766Z,12.86
2022-07-26T23:48:30.456Z,12.85
2022-07-26T23:50:57.030Z,12.80
2022-07-26T23:53:26.625Z,12.81
2022-07-26T23:55:53.523Z,12.85
2022-07-26T23:58:19.854Z,12.80
